Time,TemperatureF,DewpointF,PressureIn,WindDirection,WindDirectionDegrees,WindSpeedMPH,WindSpeedGustMPH,Humidity,HourlyPrecipIn,Conditions,Clouds,dailyrainin,SoftwareType,DateUTC
2013-07-25 00:02:00,77.2,73.0,29.93,West,267,0.0,1.0,87,0.00,,,0.00,meteohub,2013-07-25 05:02:00,
2013-07-25 00:07:00,77.0,72.9,29.93,West,267,0.0,1.0,87,0.00,,,0.00,meteohub,2013-07-25 05:07:00,
2013-07-25 00:12:00,77.0,72.9,29.93,West,267,0.0,0.0,87,0.00,,,0.00,meteohub,2013-07-25 05:12:00,
2013-07-25 00:17:00,77.0,72.9,29.93,West,267,0.0,0.0,87,0.00,,,0.00,meteohub,2013-07-25 05:17:00,
2013-07-25 00:27:00,77.0,72.9,29.93,West,267,0.0,0.0,87,0.00,,,0.00,meteohub,2013-07-25 05:27:00,
2013-07-25 00:37:00,76.8,73.0,29.93,West,267,0.0,3.0,88,0.00,,,0.00,meteohub,2013-07-25 05:37:00,
2013-07-25 00:42:00,76.8,73.0,29.94,West,267,0.0,3.0,88,0.00,,,0.00,meteohub,2013-07-25 05:42:00,
2013-07-25 00:47:00,76.8,73.0,29.93,West,267,1.0,3.0,88,0.00,,,0.00,meteohub,2013-07-25 05:47:00,
2013-07-25 00:52:00,76.6,72.9,29.93,West,267,0.0,3.0,88,0.00,,,0.00,meteohub,2013-07-25 05:52:00,
2013-07-25 00:57:00,76.6,73.2,29.94,West,267,0.0,3.0,89,0.00,,,0.00,meteohub,2013-07-25 05:57:00,
2013-07-25 01:02:00,76.5,73.0,29.93,West,267,0.0,3.0,89,0.00,,,0.00,meteohub,2013-07-25 06:02:00,
2013-07-25 01:07:00,76.5,73.0,29.93,West,267,0.0,2.0,89,0.00,,,0.00,meteohub,2013-07-25 06:07:00,
2013-07-25 01:12:00,76.3,72.9,29.93,West,267,1.0,2.0,89,0.00,,,0.00,meteohub,2013-07-25 06:12:00,
2013-07-25 01:17:00,76.3,72.9,29.93,West,267,0.0,2.0,89,0.00,,,0.00,meteohub,2013-07-25 06:17:00,
2013-07-25 01:27:00,76.3,72.9,29.93,West,267,0.0,2.0,89,0.00,,,0.00,meteohub,2013-07-25 06:27:00,
2013-07-25 01:32:00,76.3,72.9,29.93,West,267,0.0,2.0,89,0.00,,,0.00,meteohub,2013-07-25 06:32:00,
2013-07-25 01:37:00,76.3,73.0,29.93,West,267,0.0,2.0,90,0.00,,,0.00,meteohub,2013-07-25 06:37:00,
2013-07-25 01:42:00,76.5,73.0,29.93,West,267,0.0,2.0,89,0.00,,,0.00,meteohub,2013-07-25 06:42:00,
2013-07-25 01:47:00,76.5,73.0,29.93,West,267,0.0,2.0,89,0.00,,,0.00,meteohub,2013-07-25 06:47:00,
2013-07-25 01:52:00,76.5,73.0,29.93,West,267,0.0,1.0,89,0.00,,,0.00,meteohub,2013-07-25 06:52:00,
2013-07-25 01:57:00,76.3,72.9,29.93,West,267,0.0,1.0,89,0.00,,,0.00,meteohub,2013-07-25 06:57:00,
2013-07-25 02:07:00,76.3,72.9,29.94,West,267,0.0,3.0,89,0.00,,,0.00,meteohub,2013-07-25 07:07:00,
2013-07-25 02:12:00,76.3,72.9,29.94,West,267,0.0,3.0,89,0.00,,,0.00,meteohub,2013-07-25 07:12:00,
2013-07-25 02:17:00,76.3,72.9,29.93,West,267,0.0,3.0,89,0.00,,,0.00,meteohub,2013-07-25 07:17:00,
2013-07-25 02:27:00,76.3,72.9,29.93,West,267,0.0,3.0,89,0.00,,,0.00,meteohub,2013-07-25 07:27:00,
2013-07-25 02:32:00,76.3,72.5,29.93,West,267,0.0,3.0,88,0.00,,,0.00,meteohub,2013-07-25 07:32:00,
2013-07-25 02:42:00,76.3,72.9,29.94,NW,322,2.0,3.0,89,0.00,,,0.00,meteohub,2013-07-25 07:42:00,
2013-07-25 02:47:00,76.1,72.7,29.94,NNW,344,2.0,4.0,89,0.00,,,0.00,meteohub,2013-07-25 07:47:00,
2013-07-25 02:52:00,75.9,72.5,29.94,NNE,17,3.0,6.0,89,0.00,,,0.00,meteohub,2013-07-25 07:52:00,
2013-07-25 02:57:00,75.7,72.7,29.94,NNE,17,2.0,6.0,90,0.00,,,0.00,meteohub,2013-07-25 07:57:00,
2013-07-25 03:02:00,75.6,72.5,29.94,NNE,18,0.0,6.0,90,0.00,,,0.00,meteohub,2013-07-25 08:02:00,
2013-07-25 03:07:00,75.4,72.3,29.95,NNE,18,0.0,6.0,90,0.00,,,0.00,meteohub,2013-07-25 08:07:00,
2013-07-25 03:17:00,75.4,72.5,29.95,NNE,18,1.0,2.0,91,0.00,,,0.00,meteohub,2013-07-25 08:17:00,
2013-07-25 03:22:00,75.4,72.5,29.94,NNE,18,1.0,2.0,91,0.00,,,0.00,meteohub,2013-07-25 08:22:00,
2013-07-25 03:27:00,75.4,72.5,29.95,NNE,18,0.0,2.0,91,0.00,,,0.00,meteohub,2013-07-25 08:27:00,
2013-07-25 03:37:00,75.4,72.5,29.95,NNE,18,0.0,2.0,91,0.00,,,0.00,meteohub,2013-07-25 08:37:00,
2013-07-25 03:42:00,75.4,72.5,29.95,NNE,18,1.0,2.0,91,0.00,,,0.00,meteohub,2013-07-25 08:42:00,
2013-07-25 03:47:00,75.4,72.5,29.95,NNE,18,1.0,3.0,91,0.00,,,0.00,meteohub,2013-07-25 08:47:00,
2013-07-25 03:52:00,75.4,72.5,29.95,NNE,18,0.0,3.0,91,0.00,,,0.00,meteohub,2013-07-25 08:52:00,
2013-07-25 03:57:00,75.2,72.3,29.95,NNE,18,0.0,3.0,91,0.00,,,0.00,meteohub,2013-07-25 08:57:00,
2013-07-25 04:02:00,75.2,72.3,29.95,NNE,18,1.0,2.0,91,0.00,,,0.00,meteohub,2013-07-25 09:02:00,
2013-07-25 04:07:00,75.2,72.3,29.95,NNE,18,1.0,3.0,91,0.00,,,0.00,meteohub,2013-07-25 09:07:00,
2013-07-25 04:12:00,75.0,72.1,29.95,NNE,18,1.0,3.0,91,0.00,,,0.00,meteohub,2013-07-25 09:12:00,
2013-07-25 04:17:00,74.8,72.0,29.95,NNE,18,0.0,3.0,91,0.00,,,0.00,meteohub,2013-07-25 09:17:00,
2013-07-25 04:22:00,74.8,72.0,29.95,NNE,18,0.0,3.0,91,0.00,,,0.00,meteohub,2013-07-25 09:22:00,
2013-07-25 04:27:00,74.7,72.1,29.95,NNE,18,0.0,2.0,92,0.00,,,0.00,meteohub,2013-07-25 09:27:00,
2013-07-25 04:32:00,74.7,72.1,29.96,NNE,18,0.0,3.0,92,0.00,,,0.00,meteohub,2013-07-25 09:32:00,
2013-07-25 04:37:00,74.7,72.1,29.96,NNE,18,1.0,3.0,92,0.00,,,0.00,meteohub,2013-07-25 09:37:00,
2013-07-25 04:47:00,74.5,72.0,29.96,NNE,18,0.0,2.0,92,0.00,,,0.00,meteohub,2013-07-25 09:47:00,
2013-07-25 04:52:00,74.5,72.0,29.96,NNE,18,0.0,2.0,92,0.00,,,0.00,meteohub,2013-07-25 09:52:00,
2013-07-25 04:57:00,74.5,72.0,29.96,NNE,18,1.0,1.0,92,0.00,,,0.00,meteohub,2013-07-25 09:57:00,
2013-07-25 05:02:00,74.5,72.0,29.96,NNE,17,1.0,2.0,92,0.00,,,0.00,meteohub,2013-07-25 10:02:00,
2013-07-25 05:07:00,74.5,72.0,29.96,NNE,18,1.0,2.0,92,0.00,,,0.00,meteohub,2013-07-25 10:07:00,
2013-07-25 05:12:00,74.5,72.0,29.96,WNW,294,0.0,3.0,92,0.00,,,0.00,meteohub,2013-07-25 10:12:00,
2013-07-25 05:22:00,74.5,72.0,29.97,NW,321,0.0,3.0,92,0.00,,,0.00,meteohub,2013-07-25 10:22:00,
2013-07-25 05:27:00,74.5,72.0,29.97,NW,321,0.0,3.0,92,0.00,,,0.00,meteohub,2013-07-25 10:27:00,
2013-07-25 05:37:00,74.5,72.0,29.97,NW,321,1.0,1.0,92,0.00,,,0.00,meteohub,2013-07-25 10:37:00,
2013-07-25 05:42:00,74.5,72.0,29.97,NW,321,1.0,2.0,92,0.00,,,0.00,meteohub,2013-07-25 10:42:00,
2013-07-25 05:47:00,74.5,72.0,29.97,NW,323,1.0,2.0,92,0.00,,,0.00,meteohub,2013-07-25 10:47:00,
2013-07-25 05:52:00,74.3,71.8,29.97,NW,323,0.0,3.0,92,0.00,,,0.00,meteohub,2013-07-25 10:52:00,
2013-07-25 05:57:00,74.1,71.6,29.97,NW,323,1.0,3.0,92,0.00,,,0.00,meteohub,2013-07-25 10:57:00,
2013-07-25 06:07:00,74.1,71.6,29.97,NW,325,0.0,2.0,92,0.00,,,0.00,meteohub,2013-07-25 11:07:00,
2013-07-25 06:12:00,74.1,72.0,29.97,NW,326,0.0,2.0,93,0.00,,,0.00,meteohub,2013-07-25 11:12:00,
2013-07-25 06:17:00,74.1,72.0,29.98,NW,325,0.0,2.0,93,0.00,,,0.00,meteohub,2013-07-25 11:17:00,
2013-07-25 06:22:00,74.1,72.0,29.98,NW,325,0.0,2.0,93,0.00,,,0.00,meteohub,2013-07-25 11:22:00,
2013-07-25 06:27:00,74.1,72.0,29.97,NW,325,0.0,2.0,93,0.00,,,0.00,meteohub,2013-07-25 11:27:00,
2013-07-25 06:37:00,74.1,72.0,29.98,NW,325,0.0,1.0,93,0.00,,,0.00,meteohub,2013-07-25 11:37:00,
2013-07-25 06:47:00,74.1,72.0,29.98,NW,325,0.0,1.0,93,0.00,,,0.00,meteohub,2013-07-25 11:47:00,
2013-07-25 06:52:00,74.3,72.1,29.98,NW,325,0.0,1.0,93,0.00,,,0.00,meteohub,2013-07-25 11:52:00,
2013-07-25 06:57:00,74.5,72.3,29.98,NW,325,0.0,1.0,93,0.00,,,0.00,meteohub,2013-07-25 11:57:00,
2013-07-25 07:02:00,74.5,72.3,29.98,NW,325,0.0,1.0,93,0.00,,,0.00,meteohub,2013-07-25 12:02:00,
2013-07-25 07:07:00,74.7,72.5,29.98,NW,325,0.0,1.0,93,0.00,,,0.00,meteohub,2013-07-25 12:07:00,
2013-07-25 07:12:00,74.8,73.0,29.98,NW,325,0.0,0.0,94,0.00,,,0.00,meteohub,2013-07-25 12:12:00,
2013-07-25 07:17:00,75.4,73.2,29.99,NW,325,0.0,1.0,93,0.00,,,0.00,meteohub,2013-07-25 12:17:00,
2013-07-25 07:27:00,76.1,73.6,29.99,NW,325,0.0,2.0,92,0.00,,,0.00,meteohub,2013-07-25 12:27:00,
2013-07-25 07:32:00,76.3,73.8,30.00,NW,325,0.0,2.0,92,0.00,,,0.00,meteohub,2013-07-25 12:32:00,
2013-07-25 07:37:00,76.5,73.6,30.00,West,264,2.0,4.0,91,0.00,,,0.00,meteohub,2013-07-25 12:37:00,
2013-07-25 07:47:00,76.5,73.6,30.01,West,272,0.0,4.0,91,0.00,,,0.00,meteohub,2013-07-25 12:47:00,
2013-07-25 07:52:00,76.6,73.8,30.01,West,273,0.0,4.0,91,0.00,,,0.00,meteohub,2013-07-25 12:52:00,
2013-07-25 07:57:00,76.8,73.6,30.01,North,9,1.0,3.0,90,0.00,,,0.00,meteohub,2013-07-25 12:57:00,
2013-07-25 08:07:00,77.4,74.1,30.01,NNW,342,0.0,3.0,90,0.00,,,0.00,meteohub,2013-07-25 13:07:00,
2013-07-25 08:17:00,77.7,74.3,30.02,NNE,17,1.0,3.0,89,0.00,,,0.00,meteohub,2013-07-25 13:17:00,
2013-07-25 08:22:00,77.7,74.3,30.02,North,355,0.0,3.0,89,0.00,,,0.00,meteohub,2013-07-25 13:22:00,
2013-07-25 08:32:00,77.7,74.5,30.02,North,0,2.0,4.0,90,0.00,,,0.00,meteohub,2013-07-25 13:32:00,
2013-07-25 08:37:00,77.9,74.5,30.02,North,0,3.0,4.0,89,0.00,,,0.00,meteohub,2013-07-25 13:37:00,
2013-07-25 08:42:00,78.1,74.5,30.02,North,0,2.0,4.0,89,0.00,,,0.00,meteohub,2013-07-25 13:42:00,
2013-07-25 08:47:00,78.4,74.8,30.02,North,0,0.0,4.0,89,0.00,,,0.00,meteohub,2013-07-25 13:47:00,
2013-07-25 08:57:00,79.3,75.6,30.03,South,184,1.0,5.0,88,0.00,,,0.00,meteohub,2013-07-25 13:57:00,
2013-07-25 09:07:00,80.1,75.6,30.03,WSW,244,0.0,5.0,86,0.00,,,0.00,meteohub,2013-07-25 14:07:00,
2013-07-25 09:12:00,80.4,75.6,30.04,WSW,244,0.0,5.0,85,0.00,,,0.00,meteohub,2013-07-25 14:12:00,
2013-07-25 09:17:00,80.8,75.6,30.03,West,273,0.0,3.0,84,0.00,,,0.00,meteohub,2013-07-25 14:17:00,
2013-07-25 09:27:00,82.2,76.1,30.04,West,273,0.0,2.0,82,0.00,,,0.00,meteohub,2013-07-25 14:27:00,
2013-07-25 09:37:00,82.8,75.6,30.03,West,273,0.0,2.0,79,0.00,,,0.00,meteohub,2013-07-25 14:37:00,
2013-07-25 09:42:00,82.9,76.5,30.03,West,275,2.0,2.0,81,0.00,,,0.00,meteohub,2013-07-25 14:42:00,
2013-07-25 09:52:00,82.6,76.5,30.04,WSW,246,4.0,4.0,82,0.00,,,0.00,meteohub,2013-07-25 14:52:00,
2013-07-25 09:57:00,82.2,76.1,30.03,WSW,246,0.0,4.0,82,0.00,,,0.00,meteohub,2013-07-25 14:57:00,
2013-07-25 10:07:00,82.8,76.3,30.03,SW,225,2.0,4.0,81,0.00,,,0.00,meteohub,2013-07-25 15:07:00,
2013-07-25 10:12:00,83.7,76.8,30.03,NNE,20,0.0,4.0,80,0.00,,,0.00,meteohub,2013-07-25 15:12:00,
2013-07-25 10:17:00,84.2,76.6,30.03,NE,42,3.0,7.0,78,0.00,,,0.00,meteohub,2013-07-25 15:17:00,
2013-07-25 10:27:00,83.7,76.1,30.03,NE,44,1.0,7.0,78,0.00,,,0.00,meteohub,2013-07-25 15:27:00,
2013-07-25 10:32:00,83.8,76.3,30.04,NNE,14,6.0,7.0,78,0.00,,,0.00,meteohub,2013-07-25 15:32:00,
2013-07-25 10:37:00,83.8,76.3,30.03,NNE,32,2.0,9.0,78,0.00,,,0.00,meteohub,2013-07-25 15:37:00,
2013-07-25 10:42:00,83.8,75.9,30.03,NNE,24,2.0,9.0,77,0.00,,,0.00,meteohub,2013-07-25 15:42:00,
2013-07-25 10:52:00,84.2,76.3,30.04,NNW,346,3.0,8.0,77,0.00,,,0.00,meteohub,2013-07-25 15:52:00,
2013-07-25 10:57:00,84.7,76.6,30.04,North,9,0.0,8.0,77,0.00,,,0.00,meteohub,2013-07-25 15:57:00,
2013-07-25 11:02:00,85.3,75.6,30.04,NNW,342,0.0,8.0,73,0.00,,,0.00,meteohub,2013-07-25 16:02:00,
2013-07-25 11:07:00,84.9,75.2,30.04,NNW,341,0.0,6.0,73,0.00,,,0.00,meteohub,2013-07-25 16:07:00,
2013-07-25 11:12:00,85.1,75.4,30.05,NNE,29,1.0,6.0,73,0.00,,,0.00,meteohub,2013-07-25 16:12:00,
2013-07-25 11:17:00,85.6,76.5,30.05,NNE,27,0.0,6.0,74,0.00,,,0.00,meteohub,2013-07-25 16:17:00,
2013-07-25 11:22:00,86.4,76.3,30.05,West,261,0.0,4.0,72,0.00,,,0.00,meteohub,2013-07-25 16:22:00,
2013-07-25 11:32:00,86.7,76.1,30.05,North,5,3.0,4.0,71,0.00,,,0.00,meteohub,2013-07-25 16:32:00,
2013-07-25 11:42:00,86.4,74.5,30.04,NNE,17,2.0,4.0,68,0.00,,,0.00,meteohub,2013-07-25 16:42:00,
2013-07-25 11:47:00,86.2,75.7,30.04,NE,55,1.0,4.0,71,0.00,,,0.00,meteohub,2013-07-25 16:47:00,
2013-07-25 11:57:00,86.2,76.5,30.04,North,0,3.0,4.0,73,0.00,,,0.00,meteohub,2013-07-25 16:57:00,
2013-07-25 12:02:00,85.8,76.1,30.05,North,5,2.0,4.0,73,0.00,,,0.00,meteohub,2013-07-25 17:02:00,
2013-07-25 12:07:00,85.8,75.7,30.05,North,5,2.0,4.0,72,0.00,,,0.00,meteohub,2013-07-25 17:07:00,
2013-07-25 12:17:00,86.4,76.3,30.05,North,0,5.0,5.0,72,0.00,,,0.00,meteohub,2013-07-25 17:17:00,
2013-07-25 12:27:00,86.2,75.7,30.05,NE,41,1.0,6.0,71,0.00,,,0.00,meteohub,2013-07-25 17:27:00,
2013-07-25 12:32:00,86.9,75.0,30.05,NE,41,0.0,6.0,68,0.00,,,0.00,meteohub,2013-07-25 17:32:00,
2013-07-25 12:37:00,87.3,73.6,30.04,NNE,19,0.0,5.0,64,0.00,,,0.00,meteohub,2013-07-25 17:37:00,
2013-07-25 12:42:00,87.4,73.8,30.05,NNE,19,3.0,5.0,64,0.00,,,0.00,meteohub,2013-07-25 17:42:00,
2013-07-25 12:47:00,87.6,75.4,30.05,North,5,0.0,7.0,67,0.00,,,0.00,meteohub,2013-07-25 17:47:00,
2013-07-25 12:57:00,90.0,75.7,30.04,North,355,3.0,6.0,63,0.00,,,0.00,meteohub,2013-07-25 17:57:00,
2013-07-25 13:02:00,89.8,75.9,30.04,WNW,300,0.0,7.0,64,0.00,,,0.00,meteohub,2013-07-25 18:02:00,
2013-07-25 13:07:00,90.1,75.4,30.04,WSW,238,0.0,7.0,62,0.00,,,0.00,meteohub,2013-07-25 18:07:00,
2013-07-25 13:17:00,90.0,76.1,30.04,NNE,18,1.0,4.0,64,0.00,,,0.00,meteohub,2013-07-25 18:17:00,
2013-07-25 13:27:00,89.4,76.6,30.04,North,5,2.0,6.0,66,0.00,,,0.00,meteohub,2013-07-25 18:27:00,
2013-07-25 13:32:00,88.5,75.2,30.04,NNW,329,8.0,11.0,65,0.00,,,0.00,meteohub,2013-07-25 18:32:00,
2013-07-25 13:42:00,88.9,75.6,30.03,NNE,28,4.0,11.0,65,0.00,,,0.00,meteohub,2013-07-25 18:42:00,
2013-07-25 13:47:00,88.5,75.2,30.03,NNE,17,6.0,9.0,65,0.00,,,0.00,meteohub,2013-07-25 18:47:00,
2013-07-25 13:57:00,89.2,75.9,30.02,SSW,211,1.0,9.0,65,0.00,,,0.00,meteohub,2013-07-25 18:57:00,
2013-07-25 14:02:00,90.7,76.8,30.02,NNW,344,4.0,8.0,64,0.00,,,0.00,meteohub,2013-07-25 19:02:00,
2013-07-25 14:12:00,90.0,75.7,30.02,South,179,4.0,9.0,63,0.00,,,0.00,meteohub,2013-07-25 19:12:00,
2013-07-25 14:17:00,90.9,74.5,30.02,NNE,16,6.0,9.0,59,0.00,,,0.00,meteohub,2013-07-25 19:17:00,
2013-07-25 14:22:00,90.0,75.2,30.01,North,5,5.0,10.0,62,0.00,,,0.00,meteohub,2013-07-25 19:22:00,
2013-07-25 14:27:00,90.1,75.4,30.01,NNW,331,2.0,10.0,62,0.00,,,0.00,meteohub,2013-07-25 19:27:00,
2013-07-25 14:32:00,90.3,75.6,30.01,NNE,24,3.0,10.0,62,0.00,,,0.00,meteohub,2013-07-25 19:32:00,
2013-07-25 14:37:00,90.7,74.8,30.01,North,11,3.0,7.0,60,0.00,,,0.00,meteohub,2013-07-25 19:37:00,
2013-07-25 14:42:00,90.9,75.6,30.01,North,0,1.0,7.0,61,0.00,,,0.00,meteohub,2013-07-25 19:42:00,
2013-07-25 14:47:00,90.5,75.2,30.01,NNE,28,4.0,7.0,61,0.00,,,0.00,meteohub,2013-07-25 19:47:00,
2013-07-25 14:57:00,90.1,75.4,30.00,North,5,5.0,9.0,62,0.00,,,0.00,meteohub,2013-07-25 19:57:00,
2013-07-25 15:07:00,91.9,76.1,30.01,South,182,2.0,9.0,60,0.00,,,0.00,meteohub,2013-07-25 20:07:00,
2013-07-25 15:17:00,92.7,76.3,30.01,NNE,17,2.0,4.0,59,0.00,,,0.00,meteohub,2013-07-25 20:17:00,
2013-07-25 15:22:00,93.0,76.6,30.01,NE,42,5.0,5.0,59,0.00,,,0.00,meteohub,2013-07-25 20:22:00,
2013-07-25 15:27:00,91.9,75.6,30.01,NNE,17,2.0,8.0,59,0.00,,,0.00,meteohub,2013-07-25 20:27:00,
2013-07-25 15:32:00,91.4,75.0,30.00,North,355,0.0,9.0,59,0.00,,,0.00,meteohub,2013-07-25 20:32:00,
2013-07-25 15:37:00,91.0,75.2,30.00,NNE,13,3.0,9.0,60,0.00,,,0.00,meteohub,2013-07-25 20:37:00,
2013-07-25 15:47:00,90.9,75.6,30.00,NNE,24,6.0,9.0,61,0.00,,,0.00,meteohub,2013-07-25 20:47:00,
2013-07-25 15:52:00,90.7,75.4,30.00,NNE,30,3.0,10.0,61,0.00,,,0.00,meteohub,2013-07-25 20:52:00,
2013-07-25 15:57:00,90.9,75.6,30.00,NNW,340,0.0,10.0,61,0.00,,,0.00,meteohub,2013-07-25 20:57:00,
2013-07-25 16:02:00,91.8,76.5,30.00,NNW,346,2.0,9.0,61,0.00,,,0.00,meteohub,2013-07-25 21:02:00,
2013-07-25 16:12:00,91.8,75.9,30.00,NW,325,1.0,6.0,60,0.00,,,0.00,meteohub,2013-07-25 21:12:00,
2013-07-25 16:22:00,92.3,76.5,30.00,SW,233,1.0,7.0,60,0.00,,,0.00,meteohub,2013-07-25 21:22:00,
2013-07-25 16:27:00,92.1,76.6,29.99,North,0,0.0,5.0,61,0.00,,,0.00,meteohub,2013-07-25 21:27:00,
2013-07-25 16:32:00,91.9,75.6,29.99,NNE,19,4.0,5.0,59,0.00,,,0.00,meteohub,2013-07-25 21:32:00,
2013-07-25 16:42:00,91.6,76.6,29.99,North,350,1.0,8.0,62,0.00,,,0.00,meteohub,2013-07-25 21:42:00,
2013-07-25 16:47:00,91.9,76.6,29.99,North,5,1.0,8.0,61,0.00,,,0.00,meteohub,2013-07-25 21:47:00,
2013-07-25 16:52:00,92.5,77.0,29.99,NNE,25,6.0,6.0,61,0.00,,,0.00,meteohub,2013-07-25 21:52:00,
2013-07-25 16:57:00,91.6,76.3,29.99,NNE,32,0.0,9.0,61,0.00,,,0.00,meteohub,2013-07-25 21:57:00,
2013-07-25 17:02:00,91.0,76.6,29.99,North,355,1.0,9.0,63,0.00,,,0.00,meteohub,2013-07-25 22:02:00,
2013-07-25 17:12:00,90.7,76.3,29.99,North,5,3.0,8.0,63,0.00,,,0.00,meteohub,2013-07-25 22:12:00,
2013-07-25 17:17:00,90.3,75.9,29.99,NNE,18,4.0,9.0,63,0.00,,,0.00,meteohub,2013-07-25 22:17:00,
2013-07-25 17:22:00,90.5,77.2,29.99,NNE,25,2.0,9.0,65,0.00,,,0.00,meteohub,2013-07-25 22:22:00,
2013-07-25 17:32:00,90.9,77.0,29.99,SSW,194,4.0,7.0,64,0.00,,,0.00,meteohub,2013-07-25 22:32:00,
2013-07-25 17:42:00,90.1,76.3,29.99,NNE,22,5.0,8.0,64,0.00,,,0.00,meteohub,2013-07-25 22:42:00,
2013-07-25 17:47:00,90.1,77.2,29.99,NNE,15,4.0,8.0,66,0.00,,,0.00,meteohub,2013-07-25 22:47:00,
2013-07-25 17:52:00,90.3,77.0,29.99,NNW,346,4.0,8.0,65,0.00,,,0.00,meteohub,2013-07-25 22:52:00,
2013-07-25 17:57:00,90.1,77.2,29.99,NNE,19,1.0,7.0,66,0.00,,,0.00,meteohub,2013-07-25 22:57:00,
2013-07-25 18:02:00,89.8,77.4,29.99,NNE,16,2.0,7.0,67,0.00,,,0.00,meteohub,2013-07-25 23:02:00,
2013-07-25 18:12:00,89.1,77.2,29.99,North,5,0.0,7.0,68,0.00,,,0.00,meteohub,2013-07-25 23:12:00,
2013-07-25 18:22:00,89.2,76.8,29.99,NE,35,4.0,7.0,67,0.00,,,0.00,meteohub,2013-07-25 23:22:00,
2013-07-25 18:27:00,89.1,76.6,29.99,NE,44,2.0,7.0,67,0.00,,,0.00,meteohub,2013-07-25 23:27:00,
2013-07-25 18:37:00,88.2,75.7,29.99,North,0,1.0,9.0,67,0.00,,,0.00,meteohub,2013-07-25 23:37:00,
2013-07-25 18:42:00,88.0,76.1,29.99,NNE,19,2.0,9.0,68,0.00,,,0.00,meteohub,2013-07-25 23:42:00,
2013-07-25 18:47:00,87.6,76.1,29.99,NNE,21,2.0,9.0,69,0.00,,,0.00,meteohub,2013-07-25 23:47:00,
2013-07-25 18:57:00,87.3,76.3,29.99,North,350,1.0,6.0,70,0.00,,,0.00,meteohub,2013-07-25 23:57:00,
2013-07-25 19:02:00,87.3,76.3,29.99,North,5,1.0,4.0,70,0.00,,,0.00,meteohub,2013-07-26 00:02:00,
2013-07-25 19:12:00,87.1,76.1,29.99,North,350,0.0,4.0,70,0.00,,,0.00,meteohub,2013-07-26 00:12:00,
2013-07-25 19:22:00,86.5,75.9,29.99,North,5,1.0,4.0,71,0.00,,,0.00,meteohub,2013-07-26 00:22:00,
2013-07-25 19:27:00,86.5,75.9,29.99,North,5,0.0,4.0,71,0.00,,,0.00,meteohub,2013-07-26 00:27:00,
2013-07-25 19:37:00,86.2,76.1,29.99,North,5,0.0,4.0,72,0.00,,,0.00,meteohub,2013-07-26 00:37:00,
2013-07-25 19:42:00,85.8,75.7,29.99,North,5,1.0,4.0,72,0.00,,,0.00,meteohub,2013-07-26 00:42:00,
2013-07-25 19:47:00,85.6,75.6,29.99,North,5,2.0,2.0,72,0.00,,,0.00,meteohub,2013-07-26 00:47:00,
2013-07-25 19:52:00,85.5,75.7,29.99,North,355,1.0,2.0,73,0.00,,,0.00,meteohub,2013-07-26 00:52:00,
2013-07-25 19:57:00,85.3,75.6,29.99,North,355,0.0,3.0,73,0.00,,,0.00,meteohub,2013-07-26 00:57:00,
2013-07-25 20:02:00,84.9,75.7,29.99,North,355,0.0,3.0,74,0.00,,,0.00,meteohub,2013-07-26 01:02:00,
2013-07-25 20:07:00,84.7,75.6,29.99,North,355,0.0,1.0,74,0.00,,,0.00,meteohub,2013-07-26 01:07:00,
2013-07-25 20:12:00,84.6,75.7,29.99,North,355,0.0,1.0,75,0.00,,,0.00,meteohub,2013-07-26 01:12:00,
2013-07-25 20:17:00,84.2,75.4,29.99,North,355,2.0,2.0,75,0.00,,,0.00,meteohub,2013-07-26 01:17:00,
2013-07-25 20:22:00,83.8,75.4,29.99,North,355,0.0,2.0,76,0.00,,,0.00,meteohub,2013-07-26 01:22:00,
2013-07-25 20:32:00,83.5,75.6,29.99,North,355,0.0,2.0,77,0.00,,,0.00,meteohub,2013-07-26 01:32:00,
2013-07-25 20:37:00,83.3,75.4,29.99,North,355,0.0,1.0,77,0.00,,,0.00,meteohub,2013-07-26 01:37:00,
2013-07-25 20:47:00,82.8,75.2,29.99,North,355,0.0,3.0,78,0.00,,,0.00,meteohub,2013-07-26 01:47:00,
2013-07-25 20:52:00,82.8,75.2,29.99,North,355,0.0,3.0,78,0.00,,,0.00,meteohub,2013-07-26 01:52:00,
2013-07-25 20:57:00,82.6,75.0,29.99,North,355,1.0,3.0,78,0.00,,,0.00,meteohub,2013-07-26 01:57:00,
2013-07-25 21:02:00,82.8,75.2,30.00,North,355,1.0,3.0,78,0.00,,,0.00,meteohub,2013-07-26 02:02:00,
2013-07-25 21:07:00,82.8,75.2,30.00,North,355,3.0,4.0,78,0.00,,,0.00,meteohub,2013-07-26 02:07:00,
2013-07-25 21:17:00,82.8,75.2,30.00,North,9,4.0,4.0,78,0.00,,,0.00,meteohub,2013-07-26 02:17:00,
2013-07-25 21:22:00,82.6,74.7,30.00,North,355,3.0,5.0,77,0.00,,,0.00,meteohub,2013-07-26 02:22:00,
2013-07-25 21:27:00,82.6,74.7,30.00,North,350,4.0,5.0,77,0.00,,,0.00,meteohub,2013-07-26 02:27:00,
2013-07-25 21:32:00,82.2,74.7,30.00,NNW,342,2.0,6.0,78,0.00,,,0.00,meteohub,2013-07-26 02:32:00,
2013-07-25 21:37:00,82.0,74.5,30.01,NNW,341,5.0,6.0,78,0.00,,,0.00,meteohub,2013-07-26 02:37:00,
2013-07-25 21:42:00,81.9,74.3,30.01,North,5,5.0,6.0,78,0.00,,,0.00,meteohub,2013-07-26 02:42:00,
2013-07-25 21:47:00,81.7,74.1,30.01,North,355,2.0,6.0,78,0.00,,,0.00,meteohub,2013-07-26 02:47:00,
2013-07-25 21:52:00,81.7,74.5,30.01,North,9,3.0,6.0,79,0.00,,,0.00,meteohub,2013-07-26 02:52:00,
2013-07-25 21:57:00,81.3,74.1,30.01,North,9,0.0,5.0,79,0.00,,,0.00,meteohub,2013-07-26 02:57:00,
2013-07-25 22:02:00,81.1,74.3,30.01,North,9,1.0,4.0,80,0.00,,,0.00,meteohub,2013-07-26 03:02:00,
2013-07-25 22:07:00,80.8,73.9,30.01,North,9,0.0,3.0,80,0.00,,,0.00,meteohub,2013-07-26 03:07:00,
2013-07-25 22:12:00,80.2,73.9,30.01,North,9,0.0,1.0,81,0.00,,,0.00,meteohub,2013-07-26 03:12:00,
2013-07-25 22:17:00,80.1,74.1,30.02,North,9,0.0,1.0,82,0.00,,,0.00,meteohub,2013-07-26 03:17:00,
2013-07-25 22:22:00,79.7,73.8,30.02,North,9,0.0,1.0,82,0.00,,,0.00,meteohub,2013-07-26 03:22:00,
2013-07-25 22:27:00,79.5,73.9,30.02,North,9,0.0,0.0,83,0.00,,,0.00,meteohub,2013-07-26 03:27:00,
2013-07-25 22:37:00,79.0,73.8,30.02,North,9,0.0,0.0,84,0.00,,,0.00,meteohub,2013-07-26 03:37:00,
2013-07-25 22:42:00,79.0,73.8,30.02,North,9,0.0,0.0,84,0.00,,,0.00,meteohub,2013-07-26 03:42:00,
2013-07-25 22:52:00,78.6,73.8,30.02,North,9,0.0,1.0,85,0.00,,,0.00,meteohub,2013-07-26 03:52:00,
2013-07-25 22:57:00,78.6,73.4,30.02,North,355,3.0,3.0,84,0.00,,,0.00,meteohub,2013-07-26 03:57:00,
2013-07-25 23:02:00,79.0,73.4,30.02,North,355,2.0,4.0,83,0.00,,,0.00,meteohub,2013-07-26 04:02:00,
2013-07-25 23:07:00,79.2,73.6,30.03,North,355,0.0,4.0,83,0.00,,,0.00,meteohub,2013-07-26 04:07:00,
2013-07-25 23:12:00,79.2,73.6,30.03,North,355,0.0,4.0,83,0.00,,,0.00,meteohub,2013-07-26 04:12:00,
2013-07-25 23:17:00,79.0,73.4,30.03,North,355,0.0,3.0,83,0.00,,,0.00,meteohub,2013-07-26 04:17:00,
2013-07-25 23:22:00,79.0,73.4,30.03,North,355,0.0,2.0,83,0.00,,,0.00,meteohub,2013-07-26 04:22:00,
2013-07-25 23:32:00,79.0,73.4,30.03,North,355,1.0,2.0,83,0.00,,,0.00,meteohub,2013-07-26 04:32:00,
2013-07-25 23:37:00,79.0,73.0,30.03,North,355,0.0,3.0,82,0.00,,,0.00,meteohub,2013-07-26 04:37:00,
2013-07-25 23:42:00,79.2,73.6,30.03,North,355,0.0,3.0,83,0.00,,,0.00,meteohub,2013-07-26 04:42:00,
2013-07-25 23:47:00,79.0,73.4,30.04,North,355,0.0,3.0,83,0.00,,,0.00,meteohub,2013-07-26 04:47:00,
2013-07-25 23:57:00,78.3,72.7,30.03,North,355,0.0,0.0,83,0.00,,,0.00,meteohub,2013-07-26 04:57:00,